Flight Track Log - Related Links

Times and Time Zones

All times are in EST time to prevent confusion due to time zone crossing. See the EJA922 flight status page for this flight to view local times or setup timezone preferences in your user account.

Time Position Orientation Groundspeed Altitude Reporting Facility
EST Latitude Longitude Course Direction KTS MPH feet Rate Location/Type
Fri 12:39:08 PM 38.6500 -121.5833 145° Southeast 224 258 3,500  Level Northern Cal TRACON
Fri 12:40:08 PM 38.6000 -121.5000 127° Southeast 271 312 6,700 2,811 Climbing Northern Cal TRACON
Fri 12:42:18 PM 38.5072 -121.3011 121° Southeast 316 364 12,400 2,513 Climbing Oakland Center
Fri 12:43:19 PM 38.4581 -121.1883 119° Southeast 351 404 14,700 2,244 Climbing Oakland Center
Fri 12:44:00 PM 38.1586 -121.0871 145° Southeast  Level Estimated
Fri 12:44:21 PM 38.4042 -121.0678 120° Southeast 375 432 17,000  Level Oakland Center
Fri 12:45:22 PM 38.3494 -120.9467 120° Southeast 395 455 18,600 1,770 Climbing Oakland Center
Fri 12:46:23 PM 38.2928 -120.8211 120° Southeast 407 468 20,600 1,805 Climbing Oakland Center
Fri 12:47:25 PM 38.2328 -120.6928 121° Southeast 422 486 22,300 1,805 Climbing Oakland Center
Fri 12:48:26 PM 38.1397 -120.5950 140° Southeast 434 499 24,300 1,951 Climbing Oakland Center
Fri 12:49:28 PM 38.0428 -120.4994 142° Southeast 442 509 26,300 1,854 Climbing Oakland Center
Fri 12:50:29 PM 37.9431 -120.4031 143° Southeast 451 519 28,100 1,328 Climbing Oakland Center
Fri 12:51:30 PM 37.8408 -120.3019 142° Southeast 465 535 29,000 439 Climbing Oakland Center
Fri 12:52:32 PM 37.7050 -120.1711 143° Southeast 511 588 29,000 829 Level Oakland Center
Fri 12:53:33 PM 37.5894 -120.0614 143° Southeast 520 598 30,700 1,659 Climbing Oakland Center
Fri 12:54:35 PM 37.4797 -119.9531 142° Southeast 505 581 32,400 1,122 Climbing Oakland Center
Fri 12:55:36 PM 37.3644 -119.8456 143° Southeast 513 590 33,000 912 Climbing Oakland Center
Fri 12:56:40 PM 37.2303 -119.7628 154° Southeast 517 595 34,300 1,463 Climbing Oakland Center
Fri 12:57:39 PM 37.1008 -119.6936 157° South 507 583 36,000 1,289 Climbing Oakland Center
Fri 12:58:41 PM 36.9717 -119.6267 158° South 504 580 36,900 488 Climbing Oakland Center
Fri 12:59:42 PM 36.8403 -119.5567 157° South 512 589 37,000 49 Climbing Oakland Center
Fri 01:00:43 PM 36.7064 -119.4864 157° South 520 598 37,000  Level Oakland Center
Fri 01:01:45 PM 36.5744 -119.4167 157° South 515 593 37,000 -49 Level Oakland Center
Fri 01:02:46 PM 36.4161 -119.3350 157° South 514 592 36,900  Descending Oakland Center
Fri 01:03:48 PM 36.2828 -119.2653 157° South 517 595 37,000 49 Climbing Oakland Center
Fri 01:04:49 PM 36.1503 -119.1967 157° South 516 594 37,000  Level Oakland Center
Fri 01:05:51 PM 36.0181 -119.1281 157° South 515 593 37,000  Level Oakland Center
Fri 01:06:52 PM 35.8850 -119.0603 158° South 514 592 37,000 -197 Level Oakland Center
Fri 01:07:53 PM 35.7519 -118.9911 157° South 516 594 36,600 -810 Descending Oakland Center
Fri 01:08:58 PM 35.6214 -118.9250 158° South 508 585 35,300 -1,465 Descending Los Angeles Center
Fri 01:10:00 PM 35.4686 -118.8469 157° South 497 572 33,500 -1,355 Descending Los Angeles Center
Fri 01:11:02 PM 35.3375 -118.7808 158° South 504 580 32,500 -960 Descending Los Angeles Center
Fri 01:12:05 PM 35.2039 -118.7131 157° South 514 592 31,500 -960 Descending Los Angeles Center
Fri 01:13:07 PM 35.0694 -118.6456 158° South 520 598 30,500 -919 Descending Los Angeles Center
Fri 01:14:09 PM 34.9558 -118.5339 141° Southeast 529 609 29,600 -1,161 Descending Los Angeles Center
Fri 01:15:11 PM 34.8536 -118.3856 130° Southeast 527 606 28,100 -2,129 Descending Los Angeles Center
Fri 01:16:13 PM 34.7642 -118.2561 130° Southeast 509 586 25,200 -2,710 Descending Los Angeles Center
Fri 01:17:15 PM 34.6786 -118.1342 130° Southeast 483 556 22,500 -2,274 Descending Los Angeles Center
Fri 01:18:17 PM 34.6064 -118.0106 125° Southeast 456 525 20,500 -2,081 Descending Los Angeles Center
Fri 01:19:19 PM 34.5319 -117.8494 119° Southeast 460 529 18,200 -1,694 Descending Los Angeles Center
Fri 01:20:21 PM 34.4719 -117.7172 119° Southeast 453 521 17,000 -1,306 Descending Los Angeles Center
Fri 01:21:23 PM 34.4142 -117.5917 119° Southeast 434 499 15,500 -1,632 Descending Los Angeles Center
Fri 01:22:26 PM 34.3503 -117.4517 119° Southeast 419 482 13,600 -1,488 Descending Los Angeles Center
Fri 01:23:28 PM 34.2814 -117.3472 129° Southeast 401 461 12,400 -1,065 Descending Los Angeles Center
Fri 01:24:30 PM 34.1969 -117.2889 150° Southeast 346 398 11,400 -968 Descending Los Angeles Center
Fri 01:25:32 PM 34.1222 -117.2472 155° Southeast 303 349 10,400 -968 Descending Los Angeles Center
Fri 01:26:34 PM 34.0506 -117.2058 154° Southeast 288 331 9,400 -1,016 Descending Los Angeles Center
Fri 01:27:36 PM 33.9739 -117.1611 154° Southeast 281 323 8,300 -1,355 Descending Los Angeles Center
Fri 01:28:38 PM 33.9061 -117.1214 154° Southeast 274 315 6,600 -1,113 Descending Los Angeles Center
Fri 01:29:40 PM 33.8469 -117.0869 154° Southeast 263 303 6,000 -435 Descending Los Angeles Center
Fri 01:30:42 PM 33.7644 -117.0772 174° South 259 298 5,700 -677 Descending Los Angeles Center
Fri 01:31:44 PM 33.7022 -117.0928 192° South 251 289 4,600 -1,065 Descending Los Angeles Center
Fri 01:33:00 PM 33.5667 -117.1167 157° South  Level FlightAware Approximate
Fri 01:40:00 PM 33.5742 -117.1285 157° South  Level Estimated
Fri 01:41:00 PM 33.5742 -117.1285 157° South  Level Estimated
Fri 01:42:00 PM 33.5742 -117.1285 157° South  Level Estimated

Login

Don't have an account? Register now (free) for customized features, flight alerts, and more!